sensor_id;sensor_type;location;lat;lon;timestamp;P1;durP1;ratioP1;P2;durP2;ratioP2
9698;SDS011;10089;47.876;8.346;2023-08-24T00:00:41;5.10;;;4.50;;
9698;SDS011;10089;47.876;8.346;2023-08-24T00:03:07;10.00;;;4.63;;
9698;SDS011;10089;47.876;8.346;2023-08-24T00:05:34;5.53;;;3.80;;
9698;SDS011;10089;47.876;8.346;2023-08-24T00:08:07;7.60;;;4.15;;
9698;SDS011;10089;47.876;8.346;2023-08-24T00:10:34;4.80;;;4.40;;
9698;SDS011;10089;47.876;8.346;2023-08-24T00:13:00;4.63;;;4.03;;
9698;SDS011;10089;47.876;8.346;2023-08-24T00:15:26;5.25;;;3.85;;
9698;SDS011;10089;47.876;8.346;2023-08-24T00:17:52;8.13;;;4.35;;
9698;SDS011;10089;47.876;8.346;2023-08-24T00:20:17;6.00;;;4.65;;
9698;SDS011;10089;47.876;8.346;2023-08-24T00:22:44;6.03;;;4.72;;
9698;SDS011;10089;47.876;8.346;2023-08-24T00:25:11;8.23;;;4.85;;
9698;SDS011;10089;47.876;8.346;2023-08-24T00:27:38;4.63;;;4.22;;
9698;SDS011;10089;47.876;8.346;2023-08-24T00:30:04;5.70;;;4.70;;
9698;SDS011;10089;47.876;8.346;2023-08-24T00:32:34;4.43;;;4.03;;
9698;SDS011;10089;47.876;8.346;2023-08-24T00:35:03;4.63;;;4.22;;
9698;SDS011;10089;47.876;8.346;2023-08-24T00:37:31;6.70;;;4.90;;
9698;SDS011;10089;47.876;8.346;2023-08-24T00:39:57;4.50;;;4.10;;
9698;SDS011;10089;47.876;8.346;2023-08-24T00:42:24;4.13;;;3.75;;
9698;SDS011;10089;47.876;8.346;2023-08-24T00:44:51;5.93;;;4.43;;
9698;SDS011;10089;47.876;8.346;2023-08-24T00:47:17;6.25;;;4.57;;
9698;SDS011;10089;47.876;8.346;2023-08-24T00:49:42;4.88;;;4.38;;
9698;SDS011;10089;47.876;8.346;2023-08-24T00:52:08;5.07;;;4.20;;
9698;SDS011;10089;47.876;8.346;2023-08-24T00:54:35;5.50;;;4.00;;
9698;SDS011;10089;47.876;8.346;2023-08-24T00:57:04;4.60;;;3.70;;
9698;SDS011;10089;47.876;8.346;2023-08-24T00:59:31;5.03;;;4.07;;
9698;SDS011;10089;47.876;8.346;2023-08-24T01:01:57;5.25;;;4.43;;
9698;SDS011;10089;47.876;8.346;2023-08-24T01:04:24;5.65;;;4.43;;
9698;SDS011;10089;47.876;8.346;2023-08-24T01:06:50;6.65;;;4.40;;
9698;SDS011;10089;47.876;8.346;2023-08-24T01:09:16;5.53;;;4.57;;
9698;SDS011;10089;47.876;8.346;2023-08-24T01:16:59;5.50;;;4.75;;
9698;SDS011;10089;47.876;8.346;2023-08-24T01:19:43;4.38;;;3.97;;
9698;SDS011;10089;47.876;8.346;2023-08-24T01:25:16;7.13;;;4.15;;
9698;SDS011;10089;47.876;8.346;2023-08-24T01:27:46;4.85;;;4.20;;
9698;SDS011;10089;47.876;8.346;2023-08-24T01:30:12;4.78;;;4.28;;
9698;SDS011;10089;47.876;8.346;2023-08-24T01:32:39;4.78;;;4.15;;
9698;SDS011;10089;47.876;8.346;2023-08-24T01:35:07;6.13;;;4.35;;
9698;SDS011;10089;47.876;8.346;2023-08-24T01:37:34;5.80;;;4.40;;
9698;SDS011;10089;47.876;8.346;2023-08-24T01:40:05;5.20;;;3.97;;
9698;SDS011;10089;47.876;8.346;2023-08-24T01:42:56;5.18;;;4.38;;
9698;SDS011;10089;47.876;8.346;2023-08-24T01:45:29;4.55;;;4.07;;
9698;SDS011;10089;47.876;8.346;2023-08-24T01:47:56;5.00;;;4.28;;
9698;SDS011;10089;47.876;8.346;2023-08-24T01:50:23;5.68;;;4.60;;
9698;SDS011;10089;47.876;8.346;2023-08-24T01:52:49;4.60;;;4.20;;
9698;SDS011;10089;47.876;8.346;2023-08-24T01:55:17;5.00;;;4.50;;
9698;SDS011;10089;47.876;8.346;2023-08-24T01:57:44;5.40;;;4.45;;
9698;SDS011;10089;47.876;8.346;2023-08-24T02:00:09;4.50;;;4.03;;
9698;SDS011;10089;47.876;8.346;2023-08-24T02:02:35;4.88;;;4.38;;
9698;SDS011;10089;47.876;8.346;2023-08-24T02:05:02;6.97;;;4.70;;
9698;SDS011;10089;47.876;8.346;2023-08-24T02:07:28;5.90;;;4.95;;
9698;SDS011;10089;47.876;8.346;2023-08-24T02:09:54;5.43;;;4.40;;
9698;SDS011;10089;47.876;8.346;2023-08-24T02:12:19;10.15;;;4.88;;
9698;SDS011;10089;47.876;8.346;2023-08-24T02:14:45;5.22;;;4.60;;
9698;SDS011;10089;47.876;8.346;2023-08-24T02:17:11;4.78;;;4.30;;
9698;SDS011;10089;47.876;8.346;2023-08-24T02:19:36;5.68;;;4.97;;
9698;SDS011;10089;47.876;8.346;2023-08-24T02:22:02;4.85;;;4.10;;
9698;SDS011;10089;47.876;8.346;2023-08-24T02:24:27;7.53;;;4.93;;
9698;SDS011;10089;47.876;8.346;2023-08-24T02:26:53;7.28;;;4.85;;
9698;SDS011;10089;47.876;8.346;2023-08-24T02:29:19;5.93;;;4.60;;
9698;SDS011;10089;47.876;8.346;2023-08-24T02:31:44;5.10;;;4.28;;
9698;SDS011;10089;47.876;8.346;2023-08-24T02:34:10;6.85;;;4.65;;
9698;SDS011;10089;47.876;8.346;2023-08-24T02:36:35;5.63;;;4.82;;
9698;SDS011;10089;47.876;8.346;2023-08-24T02:39:01;5.82;;;4.47;;
9698;SDS011;10089;47.876;8.346;2023-08-24T02:41:27;5.78;;;4.70;;
9698;SDS011;10089;47.876;8.346;2023-08-24T02:43:53;6.45;;;4.68;;
9698;SDS011;10089;47.876;8.346;2023-08-24T02:46:20;6.10;;;4.35;;
9698;SDS011;10089;47.876;8.346;2023-08-24T02:48:46;5.70;;;4.82;;
9698;SDS011;10089;47.876;8.346;2023-08-24T02:51:12;5.20;;;4.60;;
9698;SDS011;10089;47.876;8.346;2023-08-24T02:53:38;5.30;;;4.50;;
9698;SDS011;10089;47.876;8.346;2023-08-24T02:56:04;9.15;;;4.97;;
9698;SDS011;10089;47.876;8.346;2023-08-24T02:58:30;8.93;;;4.45;;
9698;SDS011;10089;47.876;8.346;2023-08-24T03:00:56;4.97;;;4.30;;
9698;SDS011;10089;47.876;8.346;2023-08-24T03:03:25;7.78;;;4.95;;
9698;SDS011;10089;47.876;8.346;2023-08-24T03:05:55;5.97;;;4.82;;
9698;SDS011;10089;47.876;8.346;2023-08-24T03:08:21;6.07;;;4.80;;
9698;SDS011;10089;47.876;8.346;2023-08-24T03:10:47;5.57;;;4.95;;
9698;SDS011;10089;47.876;8.346;2023-08-24T03:13:13;6.72;;;5.05;;
9698;SDS011;10089;47.876;8.346;2023-08-24T03:15:39;6.07;;;4.75;;
9698;SDS011;10089;47.876;8.346;2023-08-24T03:18:04;5.68;;;5.13;;
9698;SDS011;10089;47.876;8.346;2023-08-24T03:20:30;7.95;;;5.22;;
9698;SDS011;10089;47.876;8.346;2023-08-24T03:22:56;7.60;;;5.28;;
9698;SDS011;10089;47.876;8.346;2023-08-24T03:25:22;7.05;;;4.53;;
9698;SDS011;10089;47.876;8.346;2023-08-24T03:27:48;5.47;;;4.55;;
9698;SDS011;10089;47.876;8.346;2023-08-24T03:30:14;5.05;;;4.40;;
9698;SDS011;10089;47.876;8.346;2023-08-24T03:32:40;5.00;;;4.50;;
9698;SDS011;10089;47.876;8.346;2023-08-24T03:35:06;4.72;;;4.32;;
9698;SDS011;10089;47.876;8.346;2023-08-24T03:37:32;9.48;;;5.43;;
9698;SDS011;10089;47.876;8.346;2023-08-24T03:39:58;5.22;;;4.72;;
9698;SDS011;10089;47.876;8.346;2023-08-24T03:42:24;6.40;;;4.78;;
9698;SDS011;10089;47.876;8.346;2023-08-24T03:44:50;6.10;;;4.28;;
9698;SDS011;10089;47.876;8.346;2023-08-24T03:47:15;6.10;;;4.68;;
9698;SDS011;10089;47.876;8.346;2023-08-24T03:49:44;6.28;;;5.20;;
9698;SDS011;10089;47.876;8.346;2023-08-24T03:52:10;6.43;;;4.97;;
9698;SDS011;10089;47.876;8.346;2023-08-24T03:54:35;6.32;;;4.82;;
9698;SDS011;10089;47.876;8.346;2023-08-24T03:57:01;6.72;;;5.05;;
9698;SDS011;10089;47.876;8.346;2023-08-24T03:59:27;6.72;;;5.20;;
9698;SDS011;10089;47.876;8.346;2023-08-24T04:01:53;6.25;;;5.15;;
9698;SDS011;10089;47.876;8.346;2023-08-24T04:04:19;5.65;;;4.97;;
9698;SDS011;10089;47.876;8.346;2023-08-24T04:06:45;5.72;;;5.10;;
9698;SDS011;10089;47.876;8.346;2023-08-24T04:09:10;6.55;;;5.28;;
9698;SDS011;10089;47.876;8.346;2023-08-24T04:11:36;5.80;;;4.65;;
9698;SDS011;10089;47.876;8.346;2023-08-24T04:14:02;6.68;;;4.97;;
9698;SDS011;10089;47.876;8.346;2023-08-24T04:16:27;6.30;;;5.35;;
9698;SDS011;10089;47.876;8.346;2023-08-24T04:18:53;6.40;;;5.40;;
9698;SDS011;10089;47.876;8.346;2023-08-24T04:21:18;6.82;;;5.07;;
9698;SDS011;10089;47.876;8.346;2023-08-24T04:23:44;7.22;;;5.22;;
9698;SDS011;10089;47.876;8.346;2023-08-24T04:26:13;8.00;;;5.40;;
9698;SDS011;10089;47.876;8.346;2023-08-24T04:28:39;5.93;;;5.03;;
9698;SDS011;10089;47.876;8.346;2023-08-24T04:31:04;9.50;;;5.35;;
9698;SDS011;10089;47.876;8.346;2023-08-24T04:33:30;6.32;;;5.07;;
9698;SDS011;10089;47.876;8.346;2023-08-24T04:35:56;5.65;;;5.07;;
9698;SDS011;10089;47.876;8.346;2023-08-24T04:38:23;7.68;;;4.97;;
9698;SDS011;10089;47.876;8.346;2023-08-24T04:40:53;6.32;;;5.15;;
9698;SDS011;10089;47.876;8.346;2023-08-24T04:43:21;5.20;;;4.70;;
9698;SDS011;10089;47.876;8.346;2023-08-24T04:45:51;11.25;;;5.47;;
9698;SDS011;10089;47.876;8.346;2023-08-24T04:48:21;6.38;;;5.78;;
9698;SDS011;10089;47.876;8.346;2023-08-24T04:50:48;6.90;;;5.50;;
9698;SDS011;10089;47.876;8.346;2023-08-24T04:53:18;6.68;;;4.88;;
9698;SDS011;10089;47.876;8.346;2023-08-24T04:55:45;6.93;;;5.38;;
9698;SDS011;10089;47.876;8.346;2023-08-24T04:58:11;6.40;;;5.50;;
9698;SDS011;10089;47.876;8.346;2023-08-24T05:00:38;8.40;;;5.50;;
9698;SDS011;10089;47.876;8.346;2023-08-24T05:03:05;10.25;;;5.55;;
9698;SDS011;10089;47.876;8.346;2023-08-24T05:05:31;7.95;;;5.63;;
9698;SDS011;10089;47.876;8.346;2023-08-24T05:07:58;6.57;;;5.25;;
9698;SDS011;10089;47.876;8.346;2023-08-24T05:10:25;6.18;;;5.57;;
9698;SDS011;10089;47.876;8.346;2023-08-24T05:12:51;8.15;;;5.20;;
9698;SDS011;10089;47.876;8.346;2023-08-24T05:15:16;6.30;;;5.70;;
9698;SDS011;10089;47.876;8.346;2023-08-24T05:17:42;6.13;;;5.53;;
9698;SDS011;10089;47.876;8.346;2023-08-24T05:20:08;6.32;;;5.72;;
9698;SDS011;10089;47.876;8.346;2023-08-24T05:22:37;6.32;;;5.45;;
9698;SDS011;10089;47.876;8.346;2023-08-24T05:25:03;6.97;;;5.53;;
9698;SDS011;10089;47.876;8.346;2023-08-24T05:27:30;6.18;;;5.47;;
9698;SDS011;10089;47.876;8.346;2023-08-24T05:29:55;5.65;;;5.15;;
9698;SDS011;10089;47.876;8.346;2023-08-24T05:32:21;9.20;;;5.82;;
9698;SDS011;10089;47.876;8.346;2023-08-24T05:34:47;7.10;;;5.32;;
9698;SDS011;10089;47.876;8.346;2023-08-24T05:37:13;9.52;;;6.20;;
9698;SDS011;10089;47.876;8.346;2023-08-24T05:39:38;6.15;;;5.10;;
9698;SDS011;10089;47.876;8.346;2023-08-24T05:42:04;8.20;;;5.35;;
9698;SDS011;10089;47.876;8.346;2023-08-24T05:44:30;6.13;;;4.90;;
9698;SDS011;10089;47.876;8.346;2023-08-24T05:46:56;7.45;;;5.28;;
9698;SDS011;10089;47.876;8.346;2023-08-24T05:49:21;9.30;;;5.30;;
9698;SDS011;10089;47.876;8.346;2023-08-24T05:51:49;7.38;;;5.20;;
9698;SDS011;10089;47.876;8.346;2023-08-24T05:54:15;6.72;;;5.25;;
9698;SDS011;10089;47.876;8.346;2023-08-24T05:56:43;5.90;;;5.22;;
9698;SDS011;10089;47.876;8.346;2023-08-24T05:59:09;8.93;;;5.22;;
9698;SDS011;10089;47.876;8.346;2023-08-24T06:01:35;6.38;;;4.85;;
9698;SDS011;10089;47.876;8.346;2023-08-24T06:04:04;5.78;;;5.15;;
9698;SDS011;10089;47.876;8.346;2023-08-24T06:06:30;6.22;;;5.03;;
9698;SDS011;10089;47.876;8.346;2023-08-24T06:08:56;11.05;;;4.97;;
9698;SDS011;10089;47.876;8.346;2023-08-24T06:11:22;8.68;;;4.82;;
9698;SDS011;10089;47.876;8.346;2023-08-24T06:13:48;6.68;;;5.18;;
9698;SDS011;10089;47.876;8.346;2023-08-24T06:16:14;5.32;;;4.82;;
9698;SDS011;10089;47.876;8.346;2023-08-24T06:18:39;9.35;;;5.68;;
9698;SDS011;10089;47.876;8.346;2023-08-24T06:21:05;6.03;;;5.43;;
9698;SDS011;10089;47.876;8.346;2023-08-24T06:23:30;8.57;;;5.57;;
9698;SDS011;10089;47.876;8.346;2023-08-24T06:25:56;6.05;;;5.45;;
9698;SDS011;10089;47.876;8.346;2023-08-24T06:28:22;6.05;;;5.45;;
9698;SDS011;10089;47.876;8.346;2023-08-24T06:30:47;10.85;;;5.45;;
9698;SDS011;10089;47.876;8.346;2023-08-24T06:33:13;11.30;;;4.82;;
9698;SDS011;10089;47.876;8.346;2023-08-24T06:35:41;6.60;;;4.47;;
9698;SDS011;10089;47.876;8.346;2023-08-24T06:38:07;5.60;;;4.40;;
9698;SDS011;10089;47.876;8.346;2023-08-24T06:40:32;5.90;;;4.90;;
9698;SDS011;10089;47.876;8.346;2023-08-24T06:42:58;4.80;;;4.30;;
9698;SDS011;10089;47.876;8.346;2023-08-24T06:45:24;5.95;;;4.25;;
9698;SDS011;10089;47.876;8.346;2023-08-24T06:47:50;7.10;;;4.30;;
9698;SDS011;10089;47.876;8.346;2023-08-24T06:50:16;4.60;;;3.78;;
9698;SDS011;10089;47.876;8.346;2023-08-24T06:52:42;9.32;;;3.97;;
9698;SDS011;10089;47.876;8.346;2023-08-24T06:55:10;6.82;;;3.90;;
9698;SDS011;10089;47.876;8.346;2023-08-24T06:57:37;6.50;;;4.80;;
9698;SDS011;10089;47.876;8.346;2023-08-24T07:00:03;5.47;;;3.97;;
9698;SDS011;10089;47.876;8.346;2023-08-24T07:02:32;4.95;;;4.45;;
9698;SDS011;10089;47.876;8.346;2023-08-24T07:04:58;10.00;;;4.35;;
9698;SDS011;10089;47.876;8.346;2023-08-24T07:07:24;9.65;;;4.68;;
9698;SDS011;10089;47.876;8.346;2023-08-24T07:09:50;5.95;;;4.63;;
9698;SDS011;10089;47.876;8.346;2023-08-24T07:12:16;7.45;;;4.80;;
9698;SDS011;10089;47.876;8.346;2023-08-24T07:14:41;6.53;;;4.40;;
9698;SDS011;10089;47.876;8.346;2023-08-24T07:17:07;4.85;;;4.35;;
9698;SDS011;10089;47.876;8.346;2023-08-24T07:19:32;6.20;;;4.55;;
9698;SDS011;10089;47.876;8.346;2023-08-24T07:21:58;8.27;;;4.38;;
9698;SDS011;10089;47.876;8.346;2023-08-24T07:24:24;8.48;;;4.50;;
9698;SDS011;10089;47.876;8.346;2023-08-24T07:26:54;9.57;;;4.45;;
9698;SDS011;10089;47.876;8.346;2023-08-24T07:29:20;8.35;;;4.97;;
9698;SDS011;10089;47.876;8.346;2023-08-24T07:31:46;5.97;;;4.85;;
9698;SDS011;10089;47.876;8.346;2023-08-24T07:34:12;7.25;;;4.68;;
9698;SDS011;10089;47.876;8.346;2023-08-24T07:36:37;5.45;;;4.95;;
9698;SDS011;10089;47.876;8.346;2023-08-24T07:39:03;5.25;;;4.60;;
9698;SDS011;10089;47.876;8.346;2023-08-24T07:41:29;6.22;;;4.60;;
9698;SDS011;10089;47.876;8.346;2023-08-24T07:43:55;7.68;;;4.65;;
9698;SDS011;10089;47.876;8.346;2023-08-24T07:46:21;5.03;;;4.47;;
9698;SDS011;10089;47.876;8.346;2023-08-24T07:48:46;4.85;;;4.03;;
9698;SDS011;10089;47.876;8.346;2023-08-24T07:51:12;9.07;;;4.20;;
9698;SDS011;10089;47.876;8.346;2023-08-24T07:53:37;5.35;;;4.40;;
9698;SDS011;10089;47.876;8.346;2023-08-24T07:56:03;9.95;;;4.68;;
9698;SDS011;10089;47.876;8.346;2023-08-24T07:58:29;7.18;;;5.28;;
9698;SDS011;10089;47.876;8.346;2023-08-24T08:00:56;6.57;;;4.90;;
9698;SDS011;10089;47.876;8.346;2023-08-24T08:03:22;9.77;;;4.75;;
9698;SDS011;10089;47.876;8.346;2023-08-24T08:05:48;7.15;;;5.13;;
9698;SDS011;10089;47.876;8.346;2023-08-24T08:08:14;6.95;;;4.88;;
9698;SDS011;10089;47.876;8.346;2023-08-24T08:10:40;6.80;;;4.55;;
9698;SDS011;10089;47.876;8.346;2023-08-24T08:13:06;8.35;;;5.45;;
9698;SDS011;10089;47.876;8.346;2023-08-24T08:15:33;5.72;;;4.93;;
9698;SDS011;10089;47.876;8.346;2023-08-24T08:17:58;13.13;;;5.03;;
9698;SDS011;10089;47.876;8.346;2023-08-24T08:20:24;7.80;;;4.82;;
9698;SDS011;10089;47.876;8.346;2023-08-24T08:22:50;8.45;;;4.28;;
9698;SDS011;10089;47.876;8.346;2023-08-24T08:25:15;9.88;;;4.70;;
9698;SDS011;10089;47.876;8.346;2023-08-24T08:27:43;6.72;;;4.28;;
9698;SDS011;10089;47.876;8.346;2023-08-24T08:30:09;6.65;;;4.60;;
9698;SDS011;10089;47.876;8.346;2023-08-24T08:32:35;5.35;;;4.55;;
9698;SDS011;10089;47.876;8.346;2023-08-24T08:35:00;11.48;;;4.97;;
9698;SDS011;10089;47.876;8.346;2023-08-24T08:37:27;15.50;;;5.32;;
9698;SDS011;10089;47.876;8.346;2023-08-24T08:39:52;5.20;;;4.70;;
9698;SDS011;10089;47.876;8.346;2023-08-24T08:42:18;6.32;;;4.68;;
9698;SDS011;10089;47.876;8.346;2023-08-24T08:44:45;8.75;;;4.60;;
9698;SDS011;10089;47.876;8.346;2023-08-24T08:47:12;11.05;;;4.55;;
9698;SDS011;10089;47.876;8.346;2023-08-24T08:49:39;11.25;;;4.22;;
9698;SDS011;10089;47.876;8.346;2023-08-24T08:52:06;7.50;;;4.45;;
9698;SDS011;10089;47.876;8.346;2023-08-24T08:54:31;6.70;;;4.68;;
9698;SDS011;10089;47.876;8.346;2023-08-24T08:57:01;9.55;;;4.45;;
9698;SDS011;10089;47.876;8.346;2023-08-24T08:59:30;7.43;;;4.28;;
9698;SDS011;10089;47.876;8.346;2023-08-24T09:01:56;7.75;;;5.00;;
9698;SDS011;10089;47.876;8.346;2023-08-24T09:04:26;9.20;;;4.85;;
9698;SDS011;10089;47.876;8.346;2023-08-24T09:06:54;9.70;;;4.40;;
9698;SDS011;10089;47.876;8.346;2023-08-24T09:09:21;10.63;;;4.25;;
9698;SDS011;10089;47.876;8.346;2023-08-24T09:11:48;17.48;;;4.78;;
9698;SDS011;10089;47.876;8.346;2023-08-24T09:14:14;8.77;;;4.47;;
9698;SDS011;10089;47.876;8.346;2023-08-24T09:16:40;9.80;;;4.38;;
9698;SDS011;10089;47.876;8.346;2023-08-24T09:19:06;8.55;;;4.50;;
9698;SDS011;10089;47.876;8.346;2023-08-24T09:21:36;9.00;;;3.83;;
9698;SDS011;10089;47.876;8.346;2023-08-24T09:24:02;6.47;;;3.90;;
9698;SDS011;10089;47.876;8.346;2023-08-24T09:26:33;10.65;;;4.45;;
9698;SDS011;10089;47.876;8.346;2023-08-24T09:29:10;10.38;;;4.40;;
9698;SDS011;10089;47.876;8.346;2023-08-24T09:31:40;7.25;;;4.53;;
9698;SDS011;10089;47.876;8.346;2023-08-24T09:34:09;8.20;;;3.97;;
9698;SDS011;10089;47.876;8.346;2023-08-24T09:36:35;8.25;;;4.80;;
9698;SDS011;10089;47.876;8.346;2023-08-24T09:39:02;9.88;;;4.30;;
9698;SDS011;10089;47.876;8.346;2023-08-24T09:44:11;6.80;;;4.75;;
9698;SDS011;10089;47.876;8.346;2023-08-24T09:46:37;8.82;;;4.00;;
9698;SDS011;10089;47.876;8.346;2023-08-24T09:49:04;20.33;;;5.00;;
9698;SDS011;10089;47.876;8.346;2023-08-24T09:51:31;6.53;;;4.00;;
9698;SDS011;10089;47.876;8.346;2023-08-24T09:53:58;11.27;;;4.38;;
9698;SDS011;10089;47.876;8.346;2023-08-24T09:56:29;9.73;;;4.60;;
9698;SDS011;10089;47.876;8.346;2023-08-24T09:58:58;12.20;;;4.05;;
9698;SDS011;10089;47.876;8.346;2023-08-24T10:01:25;9.50;;;4.82;;
9698;SDS011;10089;47.876;8.346;2023-08-24T10:03:51;12.35;;;4.60;;
9698;SDS011;10089;47.876;8.346;2023-08-24T10:06:19;14.40;;;5.13;;
9698;SDS011;10089;47.876;8.346;2023-08-24T10:08:52;4.97;;;4.20;;
9698;SDS011;10089;47.876;8.346;2023-08-24T10:11:25;10.25;;;4.47;;
9698;SDS011;10089;47.876;8.346;2023-08-24T10:13:58;10.88;;;4.47;;
9698;SDS011;10089;47.876;8.346;2023-08-24T10:16:24;9.98;;;4.10;;
9698;SDS011;10089;47.876;8.346;2023-08-24T10:18:53;4.65;;;3.70;;
9698;SDS011;10089;47.876;8.346;2023-08-24T10:21:20;5.53;;;4.68;;
9698;SDS011;10089;47.876;8.346;2023-08-24T10:23:50;9.02;;;4.80;;
9698;SDS011;10089;47.876;8.346;2023-08-24T10:26:17;7.30;;;4.35;;
9698;SDS011;10089;47.876;8.346;2023-08-24T10:28:43;10.80;;;5.20;;
9698;SDS011;10089;47.876;8.346;2023-08-24T10:31:11;7.03;;;3.97;;
9698;SDS011;10089;47.876;8.346;2023-08-24T10:33:37;7.57;;;4.53;;
9698;SDS011;10089;47.876;8.346;2023-08-24T10:36:04;12.98;;;4.63;;
9698;SDS011;10089;47.876;8.346;2023-08-24T10:38:31;7.40;;;4.65;;
9698;SDS011;10089;47.876;8.346;2023-08-24T10:41:01;8.27;;;4.40;;
9698;SDS011;10089;47.876;8.346;2023-08-24T10:43:29;11.40;;;4.18;;
9698;SDS011;10089;47.876;8.346;2023-08-24T10:48:28;8.00;;;4.65;;
9698;SDS011;10089;47.876;8.346;2023-08-24T10:53:44;7.07;;;4.55;;
9698;SDS011;10089;47.876;8.346;2023-08-24T10:56:15;11.20;;;5.13;;
9698;SDS011;10089;47.876;8.346;2023-08-24T10:58:43;12.15;;;4.55;;
9698;SDS011;10089;47.876;8.346;2023-08-24T11:01:19;14.52;;;4.60;;
9698;SDS011;10089;47.876;8.346;2023-08-24T11:03:50;12.50;;;4.90;;
9698;SDS011;10089;47.876;8.346;2023-08-24T11:06:23;6.57;;;4.53;;
9698;SDS011;10089;47.876;8.346;2023-08-24T11:11:39;13.57;;;5.75;;
9698;SDS011;10089;47.876;8.346;2023-08-24T11:14:18;10.73;;;5.18;;
9698;SDS011;10089;47.876;8.346;2023-08-24T11:16:47;8.20;;;4.95;;
9698;SDS011;10089;47.876;8.346;2023-08-24T11:19:13;16.80;;;5.10;;
9698;SDS011;10089;47.876;8.346;2023-08-24T11:21:41;9.43;;;4.35;;
9698;SDS011;10089;47.876;8.346;2023-08-24T11:24:08;12.88;;;4.65;;
9698;SDS011;10089;47.876;8.346;2023-08-24T11:26:39;15.18;;;5.70;;
9698;SDS011;10089;47.876;8.346;2023-08-24T11:29:06;8.48;;;4.90;;
9698;SDS011;10089;47.876;8.346;2023-08-24T11:31:33;9.40;;;4.68;;
9698;SDS011;10089;47.876;8.346;2023-08-24T11:33:59;9.85;;;4.47;;
9698;SDS011;10089;47.876;8.346;2023-08-24T11:36:25;17.73;;;4.60;;
9698;SDS011;10089;47.876;8.346;2023-08-24T11:38:56;7.20;;;4.50;;
9698;SDS011;10089;47.876;8.346;2023-08-24T11:41:25;10.00;;;4.38;;
9698;SDS011;10089;47.876;8.346;2023-08-24T11:43:58;12.77;;;4.75;;
9698;SDS011;10089;47.876;8.346;2023-08-24T11:46:25;11.60;;;4.70;;
9698;SDS011;10089;47.876;8.346;2023-08-24T11:48:52;9.38;;;5.25;;
9698;SDS011;10089;47.876;8.346;2023-08-24T11:51:22;9.98;;;4.40;;
9698;SDS011;10089;47.876;8.346;2023-08-24T11:53:47;10.05;;;5.05;;
9698;SDS011;10089;47.876;8.346;2023-08-24T11:56:17;19.17;;;5.05;;
9698;SDS011;10089;47.876;8.346;2023-08-24T11:59:14;13.30;;;4.68;;
9698;SDS011;10089;47.876;8.346;2023-08-24T12:02:00;8.55;;;4.72;;
9698;SDS011;10089;47.876;8.346;2023-08-24T12:04:25;12.98;;;4.45;;
9698;SDS011;10089;47.876;8.346;2023-08-24T12:06:51;9.48;;;4.25;;
9698;SDS011;10089;47.876;8.346;2023-08-24T12:09:17;11.10;;;4.50;;
9698;SDS011;10089;47.876;8.346;2023-08-24T12:11:42;13.73;;;4.88;;
9698;SDS011;10089;47.876;8.346;2023-08-24T12:14:20;9.75;;;4.80;;
9698;SDS011;10089;47.876;8.346;2023-08-24T12:16:45;15.57;;;4.85;;
9698;SDS011;10089;47.876;8.346;2023-08-24T12:19:11;9.98;;;4.60;;
9698;SDS011;10089;47.876;8.346;2023-08-24T12:21:38;5.60;;;4.35;;
9698;SDS011;10089;47.876;8.346;2023-08-24T12:24:13;13.55;;;5.28;;
9698;SDS011;10089;47.876;8.346;2023-08-24T12:26:39;13.63;;;4.75;;
9698;SDS011;10089;47.876;8.346;2023-08-24T12:29:05;12.20;;;4.97;;
9698;SDS011;10089;47.876;8.346;2023-08-24T12:31:34;11.15;;;5.03;;
9698;SDS011;10089;47.876;8.346;2023-08-24T12:34:01;12.27;;;4.82;;
9698;SDS011;10089;47.876;8.346;2023-08-24T12:36:28;9.57;;;4.60;;
9698;SDS011;10089;47.876;8.346;2023-08-24T12:38:54;8.77;;;4.70;;
9698;SDS011;10089;47.876;8.346;2023-08-24T12:41:20;7.88;;;5.03;;
9698;SDS011;10089;47.876;8.346;2023-08-24T12:43:46;12.45;;;4.47;;
9698;SDS011;10089;47.876;8.346;2023-08-24T12:46:12;9.18;;;4.38;;
9698;SDS011;10089;47.876;8.346;2023-08-24T12:48:38;11.23;;;4.50;;
9698;SDS011;10089;47.876;8.346;2023-08-24T12:51:04;15.70;;;3.90;;
9698;SDS011;10089;47.876;8.346;2023-08-24T12:53:30;22.95;;;5.03;;
9698;SDS011;10089;47.876;8.346;2023-08-24T12:55:56;23.48;;;3.92;;
9698;SDS011;10089;47.876;8.346;2023-08-24T12:58:21;13.75;;;3.78;;
9698;SDS011;10089;47.876;8.346;2023-08-24T13:00:47;10.60;;;3.92;;
9698;SDS011;10089;47.876;8.346;2023-08-24T13:03:13;9.38;;;3.20;;
9698;SDS011;10089;47.876;8.346;2023-08-24T13:05:39;14.77;;;3.72;;
9698;SDS011;10089;47.876;8.346;2023-08-24T13:08:05;18.67;;;3.88;;
9698;SDS011;10089;47.876;8.346;2023-08-24T13:10:30;13.32;;;3.60;;
9698;SDS011;10089;47.876;8.346;2023-08-24T13:12:56;17.90;;;3.53;;
9698;SDS011;10089;47.876;8.346;2023-08-24T13:15:23;17.88;;;3.83;;
9698;SDS011;10089;47.876;8.346;2023-08-24T13:17:48;15.32;;;3.88;;
9698;SDS011;10089;47.876;8.346;2023-08-24T13:20:15;14.50;;;3.30;;
9698;SDS011;10089;47.876;8.346;2023-08-24T13:22:41;20.98;;;4.10;;
9698;SDS011;10089;47.876;8.346;2023-08-24T13:25:07;19.23;;;3.50;;
9698;SDS011;10089;47.876;8.346;2023-08-24T13:27:32;17.45;;;3.20;;
9698;SDS011;10089;47.876;8.346;2023-08-24T13:30:01;13.30;;;3.63;;
9698;SDS011;10089;47.876;8.346;2023-08-24T13:32:28;22.20;;;3.72;;
9698;SDS011;10089;47.876;8.346;2023-08-24T13:34:53;19.15;;;4.05;;
9698;SDS011;10089;47.876;8.346;2023-08-24T13:37:21;14.93;;;3.45;;
9698;SDS011;10089;47.876;8.346;2023-08-24T13:39:48;14.82;;;3.30;;
9698;SDS011;10089;47.876;8.346;2023-08-24T13:42:13;15.43;;;4.35;;
9698;SDS011;10089;47.876;8.346;2023-08-24T13:44:39;20.40;;;4.63;;
9698;SDS011;10089;47.876;8.346;2023-08-24T13:47:05;21.27;;;3.97;;
9698;SDS011;10089;47.876;8.346;2023-08-24T13:49:30;21.45;;;3.63;;
9698;SDS011;10089;47.876;8.346;2023-08-24T13:51:56;16.30;;;3.60;;
9698;SDS011;10089;47.876;8.346;2023-08-24T13:54:22;17.48;;;3.85;;
9698;SDS011;10089;47.876;8.346;2023-08-24T13:56:48;14.65;;;3.67;;
9698;SDS011;10089;47.876;8.346;2023-08-24T13:59:18;16.45;;;3.45;;
9698;SDS011;10089;47.876;8.346;2023-08-24T14:01:44;17.55;;;4.20;;
9698;SDS011;10089;47.876;8.346;2023-08-24T14:04:10;25.55;;;4.68;;
9698;SDS011;10089;47.876;8.346;2023-08-24T14:06:36;25.10;;;3.88;;
9698;SDS011;10089;47.876;8.346;2023-08-24T14:09:02;19.98;;;4.07;;
9698;SDS011;10089;47.876;8.346;2023-08-24T14:11:28;18.00;;;3.78;;
9698;SDS011;10089;47.876;8.346;2023-08-24T14:13:55;23.30;;;4.82;;
9698;SDS011;10089;47.876;8.346;2023-08-24T14:16:20;18.70;;;3.42;;
9698;SDS011;10089;47.876;8.346;2023-08-24T14:18:46;13.38;;;3.55;;
9698;SDS011;10089;47.876;8.346;2023-08-24T14:21:12;25.30;;;4.50;;
9698;SDS011;10089;47.876;8.346;2023-08-24T14:23:38;19.02;;;4.47;;
9698;SDS011;10089;47.876;8.346;2023-08-24T14:26:05;19.92;;;3.50;;
9698;SDS011;10089;47.876;8.346;2023-08-24T14:28:51;16.20;;;3.25;;
9698;SDS011;10089;47.876;8.346;2023-08-24T14:31:26;17.35;;;4.05;;
9698;SDS011;10089;47.876;8.346;2023-08-24T14:33:53;22.05;;;3.92;;
9698;SDS011;10089;47.876;8.346;2023-08-24T14:36:19;22.35;;;3.92;;
9698;SDS011;10089;47.876;8.346;2023-08-24T14:38:45;13.05;;;3.72;;
9698;SDS011;10089;47.876;8.346;2023-08-24T14:41:12;15.90;;;3.85;;
9698;SDS011;10089;47.876;8.346;2023-08-24T14:43:39;26.67;;;4.15;;
9698;SDS011;10089;47.876;8.346;2023-08-24T14:46:05;14.20;;;4.43;;
9698;SDS011;10089;47.876;8.346;2023-08-24T14:48:31;14.35;;;3.80;;
9698;SDS011;10089;47.876;8.346;2023-08-24T14:50:57;17.60;;;3.92;;
9698;SDS011;10089;47.876;8.346;2023-08-24T14:53:27;20.80;;;3.53;;
9698;SDS011;10089;47.876;8.346;2023-08-24T14:55:54;13.77;;;4.13;;
9698;SDS011;10089;47.876;8.346;2023-08-24T14:58:21;18.45;;;4.15;;
9698;SDS011;10089;47.876;8.346;2023-08-24T15:00:47;16.25;;;4.15;;
9698;SDS011;10089;47.876;8.346;2023-08-24T15:03:18;18.02;;;4.53;;
9698;SDS011;10089;47.876;8.346;2023-08-24T15:05:45;15.93;;;4.53;;
9698;SDS011;10089;47.876;8.346;2023-08-24T15:08:20;19.42;;;3.78;;
9698;SDS011;10089;47.876;8.346;2023-08-24T15:33:12;19.35;;;4.57;;
9698;SDS011;10089;47.876;8.346;2023-08-24T15:35:41;18.58;;;4.38;;
9698;SDS011;10089;47.876;8.346;2023-08-24T15:38:07;15.02;;;3.88;;